Time;durP1;ratioP1;P1;durP2;ratioP2;P2;SDS_P1;SDS_P2;PMS_P1;PMS_P2;Temp;Humidity;BMP_temperature;BMP_pressure;BME280_temperature;BME280_humidity;BME280_pressure;Samples;Min_cycle;Max_cycle;Signal;HPM_P1;HPM_P2
2021/07/29 00:00:18;;;;;;;;;;;16.10;99.90;;;;;;5069509;28;19928;-48
2021/07/29 00:02:43;;;;;;;;;;;16.00;99.90;;;;;;5069721;28;19923;-48
2021/07/29 00:05:09;;;;;;;;;;;16.10;99.90;;;;;;5068840;28;19908;-49
2021/07/29 00:07:34;;;;;;;;;;;16.00;99.90;;;;;;5051349;28;19934;-48
2021/07/29 00:10:00;;;;;;;;;;;16.00;99.90;;;;;;5069280;28;19915;-50
2021/07/29 00:12:26;;;;;;;;;;;16.00;99.90;;;;;;5069308;28;19908;-50
2021/07/29 00:14:52;;;;;;;;;;;16.00;99.90;;;;;;5068962;28;20330;-52
2021/07/29 00:19:01;;;;;;;;;;;16.00;99.90;;;;;;5069344;28;19908;-48
2021/07/29 00:20:17;;;;;;;;;;;15.90;99.90;;;;;;5068937;28;19962;-51
2021/07/29 00:22:43;;;;;;;;;;;15.90;99.90;;;;;;5069256;28;19931;-53
2021/07/29 00:25:13;;;;;;;;;;;15.90;99.90;;;;;;5068741;28;19970;-47
2021/07/29 00:30:41;;;;;;;;;;;15.80;99.90;;;;;;5056514;28;19915;-48
2021/07/29 00:33:06;;;;;;;;;;;15.80;99.90;;;;;;5068606;28;20466;-50
2021/07/29 00:35:32;;;;;;;;;;;15.80;99.90;;;;;;5068664;28;19924;-48
2021/07/29 00:38:01;;;;;;;;;;;15.80;99.90;;;;;;5050774;28;20435;-47
2021/07/29 00:40:26;;;;;;;;;;;15.70;99.90;;;;;;5068834;28;19908;-49
2021/07/29 00:42:52;;;;;;;;;;;15.70;99.90;;;;;;5069069;28;19966;-48
2021/07/29 00:45:17;;;;;;;;;;;15.70;99.90;;;;;;5068341;28;19939;-47
2021/07/29 00:47:44;;;;;;;;;;;15.60;99.90;;;;;;5069160;28;19915;-52
2021/07/29 00:50:10;;;;;;;;;;;15.60;99.90;;;;;;5068505;28;20035;-48
2021/07/29 00:52:36;;;;;;;;;;;15.60;99.90;;;;;;5068886;28;19913;-50
2021/07/29 00:55:02;;;;;;;;;;;15.50;99.90;;;;;;5067959;28;20043;-50
2021/07/29 00:57:27;;;;;;;;;;;15.50;99.90;;;;;;5068471;28;19916;-48
2021/07/29 00:59:53;;;;;;;;;;;15.50;99.90;;;;;;5066599;28;19912;-51
2021/07/29 01:02:18;;;;;;;;;;;15.50;99.90;;;;;;5065916;28;19909;-52
2021/07/29 01:04:47;;;;;;;;;;;15.50;99.90;;;;;;5048610;28;19909;-48
2021/07/29 01:07:13;;;;;;;;;;;15.40;99.90;;;;;;5068101;28;20527;-47
2021/07/29 01:09:38;;;;;;;;;;;15.40;99.90;;;;;;5068799;28;20007;-48
2021/07/29 01:12:04;;;;;;;;;;;15.40;99.90;;;;;;5068319;28;19948;-49
2021/07/29 01:14:29;;;;;;;;;;;15.30;99.90;;;;;;5068343;28;20470;-51
2021/07/29 01:16:55;;;;;;;;;;;15.30;99.90;;;;;;5068778;28;20011;-48
2021/07/29 01:19:23;;;;;;;;;;;15.30;99.90;;;;;;5050186;28;19908;-50
2021/07/29 01:21:48;;;;;;;;;;;15.30;99.90;;;;;;5050961;28;19931;-50
2021/07/29 01:24:14;;;;;;;;;;;15.30;99.90;;;;;;5068244;28;20374;-50
2021/07/29 01:26:39;;;;;;;;;;;15.30;99.90;;;;;;5068248;28;19908;-47
2021/07/29 01:29:05;;;;;;;;;;;15.30;99.90;;;;;;5067980;28;19917;-50
2021/07/29 01:31:30;;;;;;;;;;;15.40;99.90;;;;;;5068562;28;19909;-49
2021/07/29 01:33:56;;;;;;;;;;;15.40;99.90;;;;;;5068289;28;20006;-50
2021/07/29 01:36:21;;;;;;;;;;;15.30;99.90;;;;;;5067959;28;19915;-47
2021/07/29 01:38:47;;;;;;;;;;;15.30;99.90;;;;;;5068088;28;20003;-52
2021/07/29 01:41:12;;;;;;;;;;;15.30;99.90;;;;;;5068397;28;19953;-49
2021/07/29 01:43:38;;;;;;;;;;;15.30;99.90;;;;;;5068259;28;19912;-49
2021/07/29 01:46:03;;;;;;;;;;;15.30;99.90;;;;;;5067873;28;19934;-49
2021/07/29 01:48:30;;;;;;;;;;;15.30;99.90;;;;;;5067909;28;19909;-51
2021/07/29 01:50:55;;;;;;;;;;;15.30;99.90;;;;;;5068024;28;19908;-49
2021/07/29 01:53:21;;;;;;;;;;;15.30;99.90;;;;;;5068016;28;20427;-49
2021/07/29 01:55:47;;;;;;;;;;;15.40;99.90;;;;;;5067981;28;19908;-47
2021/07/29 01:58:13;;;;;;;;;;;15.40;99.90;;;;;;5049957;28;19977;-50
2021/07/29 02:00:39;;;;;;;;;;;15.40;99.90;;;;;;5067497;28;19912;-48
2021/07/29 02:03:05;;;;;;;;;;;15.40;99.90;;;;;;5069506;28;19923;-49
2021/07/29 02:05:31;;;;;;;;;;;15.40;99.90;;;;;;5071334;28;19909;-50
2021/07/29 02:07:57;;;;;;;;;;;15.40;99.90;;;;;;5071867;28;19908;-50
2021/07/29 02:10:22;;;;;;;;;;;15.40;99.90;;;;;;5071796;28;19909;-50
2021/07/29 02:12:48;;;;;;;;;;;15.40;99.90;;;;;;5053920;28;19927;-49
2021/07/29 02:15:14;;;;;;;;;;;15.40;99.90;;;;;;5071521;28;19967;-48
2021/07/29 02:17:39;;;;;;;;;;;15.40;99.90;;;;;;5071408;28;19992;-48
2021/07/29 02:20:05;;;;;;;;;;;15.40;99.90;;;;;;5071713;28;20379;-48
2021/07/29 02:22:31;;;;;;;;;;;15.40;99.90;;;;;;5053546;28;19970;-50
2021/07/29 02:24:56;;;;;;;;;;;15.40;99.90;;;;;;5071290;28;20003;-50
2021/07/29 02:27:25;;;;;;;;;;;15.40;99.90;;;;;;5071367;28;19908;-47
2021/07/29 02:29:53;;;;;;;;;;;15.40;99.90;;;;;;5069710;28;19920;-48
2021/07/29 02:32:19;;;;;;;;;;;15.40;99.90;;;;;;5053291;28;19962;-52
2021/07/29 02:34:45;;;;;;;;;;;15.40;99.90;;;;;;5070979;28;19956;-49
2021/07/29 02:37:10;;;;;;;;;;;15.40;99.90;;;;;;5071170;28;19909;-50
2021/07/29 02:39:37;;;;;;;;;;;15.40;99.90;;;;;;5071706;28;19908;-47
2021/07/29 02:42:03;;;;;;;;;;;15.40;99.90;;;;;;5071584;28;19909;-48
2021/07/29 02:44:29;;;;;;;;;;;15.50;99.90;;;;;;5053351;28;19916;-52
2021/07/29 02:46:54;;;;;;;;;;;15.50;99.90;;;;;;5071001;28;19914;-48
2021/07/29 02:49:20;;;;;;;;;;;15.50;99.90;;;;;;5070709;28;19917;-50
2021/07/29 02:51:45;;;;;;;;;;;15.50;99.90;;;;;;5071392;28;19948;-50
2021/07/29 02:54:11;;;;;;;;;;;15.60;99.90;;;;;;5070718;28;19919;-51
2021/07/29 02:56:36;;;;;;;;;;;15.60;99.90;;;;;;5052548;28;20028;-47
2021/07/29 02:59:01;;;;;;;;;;;15.60;99.90;;;;;;5052635;28;19958;-50
2021/07/29 03:01:28;;;;;;;;;;;15.70;99.90;;;;;;5071324;28;19908;-51
2021/07/29 03:03:54;;;;;;;;;;;15.70;99.90;;;;;;5070844;28;19908;-48
2021/07/29 03:06:19;;;;;;;;;;;15.80;99.90;;;;;;5051876;28;20003;-50
2021/07/29 03:08:45;;;;;;;;;;;15.80;99.90;;;;;;5070610;28;20290;-52
2021/07/29 03:11:10;;;;;;;;;;;15.80;99.90;;;;;;5070921;28;19909;-47
2021/07/29 03:13:36;;;;;;;;;;;15.80;99.90;;;;;;5070976;28;19919;-48
2021/07/29 03:16:01;;;;;;;;;;;15.80;99.90;;;;;;5070084;28;19991;-53
2021/07/29 03:18:27;;;;;;;;;;;15.90;99.90;;;;;;5070761;28;19909;-53
2021/07/29 03:20:52;;;;;;;;;;;15.90;99.90;;;;;;5070603;28;19908;-49
2021/07/29 03:23:18;;;;;;;;;;;15.90;99.90;;;;;;5052195;28;19962;-49
2021/07/29 03:25:46;;;;;;;;;;;15.90;99.90;;;;;;5070516;28;19909;-55
2021/07/29 03:28:12;;;;;;;;;;;15.90;99.90;;;;;;5069880;28;20397;-51
2021/07/29 03:30:37;;;;;;;;;;;15.90;99.90;;;;;;5070754;28;19919;-47
2021/07/29 03:33:05;;;;;;;;;;;16.00;99.90;;;;;;5070484;28;20301;-53
2021/07/29 03:35:30;;;;;;;;;;;16.00;99.90;;;;;;5069980;28;19967;-52
2021/07/29 03:37:56;;;;;;;;;;;16.00;99.90;;;;;;5070169;28;19944;-49
2021/07/29 03:40:21;;;;;;;;;;;16.00;99.90;;;;;;5070297;28;19908;-48
2021/07/29 03:42:47;;;;;;;;;;;16.00;99.90;;;;;;5070425;28;19908;-49
2021/07/29 03:45:13;;;;;;;;;;;16.00;99.90;;;;;;5069646;28;19934;-53
2021/07/29 03:47:39;;;;;;;;;;;16.00;99.90;;;;;;5070333;28;19999;-49
2021/07/29 03:50:05;;;;;;;;;;;16.00;99.90;;;;;;5069768;28;20008;-47
2021/07/29 03:52:30;;;;;;;;;;;16.10;99.90;;;;;;5069952;28;19916;-50
2021/07/29 03:54:56;;;;;;;;;;;16.10;99.90;;;;;;5069626;28;19913;-51
2021/07/29 03:57:23;;;;;;;;;;;16.00;99.90;;;;;;5069580;28;19951;-51
2021/07/29 03:59:48;;;;;;;;;;;16.00;99.90;;;;;;5069431;28;19911;-47
2021/07/29 04:02:14;;;;;;;;;;;16.00;99.90;;;;;;5069552;28;19995;-49
2021/07/29 04:04:40;;;;;;;;;;;16.00;99.90;;;;;;5069110;28;19909;-49
2021/07/29 04:07:06;;;;;;;;;;;16.00;99.90;;;;;;5051282;28;19908;-51
2021/07/29 04:09:31;;;;;;;;;;;16.00;99.90;;;;;;5051725;28;19915;-52
2021/07/29 04:11:57;;;;;;;;;;;16.00;99.90;;;;;;5069460;28;19908;-52
2021/07/29 04:14:22;;;;;;;;;;;16.00;99.90;;;;;;5069528;28;19920;-52
2021/07/29 04:16:50;;;;;;;;;;;15.90;99.90;;;;;;5069264;28;20011;-53
2021/07/29 04:19:16;;;;;;;;;;;15.90;99.90;;;;;;5066131;28;20013;-49
2021/07/29 04:21:41;;;;;;;;;;;15.80;99.90;;;;;;5069638;28;20366;-50
2021/07/29 04:24:07;;;;;;;;;;;15.80;99.90;;;;;;5069063;28;19909;-53
2021/07/29 04:26:32;;;;;;;;;;;15.80;99.90;;;;;;5068057;28;19909;-50
2021/07/29 04:28:58;;;;;;;;;;;15.80;99.90;;;;;;5068879;28;19927;-53
2021/07/29 04:31:23;;;;;;;;;;;15.80;99.90;;;;;;5069296;28;19944;-55
2021/07/29 04:33:49;;;;;;;;;;;15.80;99.90;;;;;;5068936;28;19923;-53
2021/07/29 04:36:14;;;;;;;;;;;15.80;99.90;;;;;;5068488;28;19909;-53
2021/07/29 04:38:40;;;;;;;;;;;15.80;99.90;;;;;;5068685;28;19908;-53
2021/07/29 04:41:06;;;;;;;;;;;15.80;99.90;;;;;;5069047;28;20018;-52
2021/07/29 04:43:31;;;;;;;;;;;15.90;99.90;;;;;;5069189;28;19913;-53
2021/07/29 04:46:01;;;;;;;;;;;16.00;99.90;;;;;;5068407;28;19991;-52
2021/07/29 04:48:26;;;;;;;;;;;16.00;99.90;;;;;;5050833;28;19908;-51
2021/07/29 04:50:52;;;;;;;;;;;16.00;99.90;;;;;;5068889;28;20355;-52
2021/07/29 04:53:17;;;;;;;;;;;16.00;99.90;;;;;;5069113;28;19913;-51
2021/07/29 04:55:42;;;;;;;;;;;16.00;99.90;;;;;;5068437;28;19916;-53
2021/07/29 04:58:08;;;;;;;;;;;16.00;99.90;;;;;;5069027;28;20424;-51
2021/07/29 05:00:34;;;;;;;;;;;16.00;99.90;;;;;;5066648;28;19912;-50
2021/07/29 05:02:59;;;;;;;;;;;16.00;99.90;;;;;;5068877;28;19954;-54
2021/07/29 05:05:25;;;;;;;;;;;16.00;99.90;;;;;;5067637;28;19913;-54
2021/07/29 05:07:51;;;;;;;;;;;16.00;99.90;;;;;;5068695;28;19916;-53
2021/07/29 05:10:17;;;;;;;;;;;16.00;99.90;;;;;;5068517;28;19912;-54
2021/07/29 05:12:43;;;;;;;;;;;16.00;99.90;;;;;;5068781;28;19936;-50
2021/07/29 05:15:08;;;;;;;;;;;16.00;99.90;;;;;;5068006;28;19917;-52
2021/07/29 05:17:34;;;;;;;;;;;16.00;99.90;;;;;;5068190;28;19909;-50
2021/07/29 05:19:59;;;;;;;;;;;16.00;99.90;;;;;;5068304;28;19963;-51
2021/07/29 05:22:25;;;;;;;;;;;16.10;99.90;;;;;;5068267;28;19935;-47
2021/07/29 05:24:50;;;;;;;;;;;16.10;99.90;;;;;;5067944;28;20011;-48
2021/07/29 05:27:16;;;;;;;;;;;16.10;99.90;;;;;;5068137;28;20290;-53
2021/07/29 05:29:41;;;;;;;;;;;16.10;99.90;;;;;;5050396;28;20005;-51
2021/07/29 05:32:07;;;;;;;;;;;16.10;99.90;;;;;;5068282;28;19908;-50
2021/07/29 05:34:33;;;;;;;;;;;16.10;99.90;;;;;;5067603;28;19916;-50
2021/07/29 05:36:58;;;;;;;;;;;16.20;99.90;;;;;;5068061;28;19915;-51
2021/07/29 05:39:24;;;;;;;;;;;16.30;99.90;;;;;;5072112;28;20367;-51
2021/07/29 05:41:49;;;;;;;;;;;16.40;99.90;;;;;;5072607;28;19909;-55
2021/07/29 05:44:15;;;;;;;;;;;16.40;99.90;;;;;;5072532;28;19935;-47
2021/07/29 05:46:40;;;;;;;;;;;16.40;99.90;;;;;;5072041;28;20370;-52
2021/07/29 05:49:06;;;;;;;;;;;16.40;99.90;;;;;;5054123;28;19909;-49
2021/07/29 05:51:31;;;;;;;;;;;16.40;99.90;;;;;;5054254;28;19951;-49
2021/07/29 05:53:57;;;;;;;;;;;16.50;99.90;;;;;;5071956;28;19913;-49
2021/07/29 05:56:22;;;;;;;;;;;16.60;99.90;;;;;;5071813;28;19987;-50
2021/07/29 05:58:48;;;;;;;;;;;16.60;99.90;;;;;;5071937;28;19927;-52
2021/07/29 06:01:13;;;;;;;;;;;16.60;99.90;;;;;;5070894;28;19919;-49
2021/07/29 06:03:39;;;;;;;;;;;16.60;99.90;;;;;;5072025;28;19913;-48
2021/07/29 06:06:04;;;;;;;;;;;16.70;99.90;;;;;;5053148;28;19915;-51
2021/07/29 06:08:30;;;;;;;;;;;16.70;99.90;;;;;;5054011;28;20546;-51
2021/07/29 06:10:55;;;;;;;;;;;16.80;99.90;;;;;;5071585;28;19959;-47
2021/07/29 06:13:21;;;;;;;;;;;16.90;99.90;;;;;;5072014;28;19912;-51
2021/07/29 06:15:46;;;;;;;;;;;16.90;99.90;;;;;;5071294;28;20318;-49
2021/07/29 06:18:13;;;;;;;;;;;17.00;99.90;;;;;;5071769;28;19909;-52
2021/07/29 06:20:38;;;;;;;;;;;17.00;99.90;;;;;;5071476;28;19909;-49
2021/07/29 06:23:04;;;;;;;;;;;17.10;99.90;;;;;;5071328;28;19988;-51
2021/07/29 06:25:30;;;;;;;;;;;17.20;99.90;;;;;;5071069;28;19935;-51
2021/07/29 06:27:55;;;;;;;;;;;17.20;99.90;;;;;;5071184;28;19916;-49
2021/07/29 06:30:21;;;;;;;;;;;17.30;99.90;;;;;;5071480;28;19971;-48
2021/07/29 06:32:46;;;;;;;;;;;17.30;99.90;;;;;;5071265;28;19916;-53
2021/07/29 06:35:12;;;;;;;;;;;17.30;99.90;;;;;;5071111;28;19913;-47
2021/07/29 06:37:37;;;;;;;;;;;17.40;99.90;;;;;;5053258;28;19930;-49
2021/07/29 06:40:04;;;;;;;;;;;17.40;99.90;;;;;;5071119;28;20440;-51
2021/07/29 06:42:29;;;;;;;;;;;17.30;99.90;;;;;;5053829;28;19920;-51
2021/07/29 06:44:56;;;;;;;;;;;17.40;99.90;;;;;;5071265;28;19954;-47
2021/07/29 06:47:21;;;;;;;;;;;17.50;99.90;;;;;;5071198;28;19916;-53
2021/07/29 06:49:47;;;;;;;;;;;17.50;99.90;;;;;;5070512;28;19908;-49
2021/07/29 06:52:13;;;;;;;;;;;17.50;99.90;;;;;;5071258;28;20352;-49
2021/07/29 06:54:39;;;;;;;;;;;17.40;99.90;;;;;;5070145;28;20293;-51
2021/07/29 06:57:05;;;;;;;;;;;17.50;99.90;;;;;;5070947;28;20008;-52
2021/07/29 06:59:30;;;;;;;;;;;17.50;99.90;;;;;;5052748;28;19909;-52
2021/07/29 07:01:56;;;;;;;;;;;17.50;99.90;;;;;;5071035;28;20007;-51
2021/07/29 07:04:21;;;;;;;;;;;17.50;99.90;;;;;;5070917;28;20344;-47
2021/07/29 07:06:46;;;;;;;;;;;17.50;99.90;;;;;;5070080;28;20435;-49
2021/07/29 07:09:12;;;;;;;;;;;17.60;99.90;;;;;;5070496;28;19919;-50
2021/07/29 07:11:38;;;;;;;;;;;17.70;99.90;;;;;;5071153;28;20290;-48
2021/07/29 07:14:05;;;;;;;;;;;17.80;99.90;;;;;;5052612;28;19913;-48
2021/07/29 07:16:31;;;;;;;;;;;17.80;99.90;;;;;;5070172;28;19908;-52
2021/07/29 07:18:57;;;;;;;;;;;17.90;99.90;;;;;;5070495;28;19908;-49
2021/07/29 07:21:23;;;;;;;;;;;17.90;99.90;;;;;;5063366;28;19970;-51
2021/07/29 07:23:48;;;;;;;;;;;17.90;99.90;;;;;;5052383;28;20599;-51
2021/07/29 07:26:15;;;;;;;;;;;18.00;99.90;;;;;;5070199;28;19995;-48
2021/07/29 07:28:40;;;;;;;;;;;18.00;99.90;;;;;;5070032;28;19923;-53
2021/07/29 07:31:06;;;;;;;;;;;18.00;99.90;;;;;;5070042;28;20286;-47
2021/07/29 07:33:31;;;;;;;;;;;18.10;99.90;;;;;;5052285;28;19909;-53
2021/07/29 07:35:57;;;;;;;;;;;18.30;99.90;;;;;;5051854;28;19908;-48
2021/07/29 07:38:22;;;;;;;;;;;18.50;99.90;;;;;;5069826;28;20388;-53
2021/07/29 07:40:49;;;;;;;;;;;18.60;99.90;;;;;;5070473;28;19912;-48
2021/07/29 07:43:14;;;;;;;;;;;18.90;99.90;;;;;;5070326;28;19912;-46
2021/07/29 07:45:40;;;;;;;;;;;19.00;99.90;;;;;;5064918;28;20438;-50
2021/07/29 07:48:06;;;;;;;;;;;19.20;99.90;;;;;;5064496;28;20003;-50
2021/07/29 07:50:32;;;;;;;;;;;19.40;99.90;;;;;;5061223;28;20446;-49
2021/07/29 07:52:57;;;;;;;;;;;19.60;99.90;;;;;;5058448;28;20008;-50
2021/07/29 07:55:23;;;;;;;;;;;19.80;99.90;;;;;;5055011;28;19916;-50
2021/07/29 07:57:48;;;;;;;;;;;19.90;99.90;;;;;;5051662;28;20485;-52
2021/07/29 08:00:15;;;;;;;;;;;20.20;99.90;;;;;;5066962;28;19922;-53
2021/07/29 08:02:40;;;;;;;;;;;20.40;99.90;;;;;;5068308;28;19916;-51
2021/07/29 08:05:06;;;;;;;;;;;20.50;99.90;;;;;;5067118;28;19934;-51
2021/07/29 08:07:32;;;;;;;;;;;20.40;99.90;;;;;;5067870;28;19947;-47
2021/07/29 08:09:57;;;;;;;;;;;20.40;99.90;;;;;;5067953;28;19943;-49
2021/07/29 08:12:23;;;;;;;;;;;20.30;99.90;;;;;;5067876;28;19919;-50
2021/07/29 08:14:48;;;;;;;;;;;20.20;99.90;;;;;;5068477;28;19928;-47
2021/07/29 08:17:13;;;;;;;;;;;20.30;99.90;;;;;;5068966;28;19913;-47
2021/07/29 08:19:39;;;;;;;;;;;20.40;99.90;;;;;;5069140;28;19919;-50
2021/07/29 08:22:04;;;;;;;;;;;20.30;99.10;;;;;;5068923;28;20416;-47
2021/07/29 08:24:31;;;;;;;;;;;20.10;99.90;;;;;;5069008;28;19908;-51
2021/07/29 08:26:57;;;;;;;;;;;20.20;99.90;;;;;;5069083;28;19908;-50
2021/07/29 08:29:23;;;;;;;;;;;20.30;99.90;;;;;;5090722;22;19935;-58
2021/07/29 08:31:48;;;;;;;;;;;20.70;99.90;;;;;;5089162;28;19998;-57
2021/07/29 08:34:13;;;;;;;;;;;21.00;99.40;;;;;;5088689;28;19942;-58
2021/07/29 08:36:40;;;;;;;;;;;21.10;99.60;;;;;;5088499;28;19947;-58
2021/07/29 08:39:07;;;;;;;;;;;21.20;99.90;;;;;;5089062;28;19908;-59
2021/07/29 08:41:35;;;;;;;;;;;21.30;97.50;;;;;;5089379;28;20366;-59
2021/07/29 08:44:00;;;;;;;;;;;21.50;99.90;;;;;;5089300;28;19908;-59
2021/07/29 08:46:26;;;;;;;;;;;21.70;98.80;;;;;;5088892;28;19953;-58
2021/07/29 08:48:51;;;;;;;;;;;22.00;98.30;;;;;;5088611;28;19987;-58
2021/07/29 08:51:18;;;;;;;;;;;22.10;96.90;;;;;;5092954;28;19994;-56
2021/07/29 08:53:44;;;;;;;;;;;22.20;97.10;;;;;;5088751;28;19912;-58
2021/07/29 08:56:11;;;;;;;;;;;22.20;95.30;;;;;;5088759;28;19924;-58
2021/07/29 08:58:37;;;;;;;;;;;22.20;95.00;;;;;;5088640;28;19940;-57
2021/07/29 09:01:08;;;;;;;;;;;22.30;95.20;;;;;;5088775;28;19974;-58
2021/07/29 09:03:34;;;;;;;;;;;22.50;96.20;;;;;;5089101;28;19915;-60
2021/07/29 09:06:07;;;;;;;;;;;22.70;94.20;;;;;;5088010;28;19974;-57
2021/07/29 09:08:42;;;;;;;;;;;22.80;95.80;;;;;;5089112;28;20434;-60
2021/07/29 09:11:23;;;;;;;;;;;22.90;94.00;;;;;;5070327;28;19931;-61
2021/07/29 09:14:00;;;;;;;;;;;23.00;94.50;;;;;;5089065;28;19912;-54
2021/07/29 09:16:25;;;;;;;;;;;23.20;95.40;;;;;;5081844;28;19935;-56
2021/07/29 09:18:51;;;;;;;;;;;23.30;94.20;;;;;;5088744;28;19908;-57
2021/07/29 09:21:16;;;;;;;;;;;23.30;94.20;;;;;;5088705;28;20334;-59
2021/07/29 09:23:42;;;;;;;;;;;22.90;92.00;;;;;;5070789;28;19942;-60
2021/07/29 09:26:07;;;;;;;;;;;22.40;91.60;;;;;;5079465;28;20012;-59
2021/07/29 09:28:37;;;;;;;;;;;22.30;93.00;;;;;;5077709;28;19908;-56
2021/07/29 09:31:15;;;;;;;;;;;22.20;92.50;;;;;;5088401;28;19955;-57
2021/07/29 09:33:59;;;;;;;;;;;22.30;92.00;;;;;;5087226;28;20019;-59
2021/07/29 09:36:25;;;;;;;;;;;22.10;91.60;;;;;;5084611;28;20392;-57
2021/07/29 09:38:50;;;;;;;;;;;21.90;90.30;;;;;;5087291;28;19908;-60
2021/07/29 09:41:27;;;;;;;;;;;22.00;91.50;;;;;;5069487;28;19947;-57
2021/07/29 09:43:54;;;;;;;;;;;22.10;92.10;;;;;;5087340;28;19916;-57
2021/07/29 09:46:21;;;;;;;;;;;22.20;90.50;;;;;;5087617;28;20398;-60
2021/07/29 09:48:47;;;;;;;;;;;22.50;93.40;;;;;;5088062;28;19909;-57
2021/07/29 09:51:14;;;;;;;;;;;22.80;92.00;;;;;;5073890;28;19934;-56
2021/07/29 09:53:41;;;;;;;;;;;23.00;91.20;;;;;;5088233;28;20011;-58
2021/07/29 09:56:07;;;;;;;;;;;23.20;92.30;;;;;;5088510;28;19912;-57
2021/07/29 09:58:34;;;;;;;;;;;23.40;91.20;;;;;;5088283;28;19908;-59
2021/07/29 10:00:59;;;;;;;;;;;23.50;90.50;;;;;;5086205;28;19986;-57
2021/07/29 10:03:25;;;;;;;;;;;23.40;90.80;;;;;;5088689;28;20371;-57
2021/07/29 10:05:53;;;;;;;;;;;23.30;87.90;;;;;;5087479;28;19908;-61
2021/07/29 10:08:24;;;;;;;;;;;23.20;90.40;;;;;;5088466;28;20053;-56
2021/07/29 10:10:51;;;;;;;;;;;23.00;88.90;;;;;;5088217;28;19919;-58
2021/07/29 10:13:16;;;;;;;;;;;22.80;90.60;;;;;;5087953;28;20310;-59
2021/07/29 10:15:43;;;;;;;;;;;22.70;88.60;;;;;;5087573;28;19918;-57
2021/07/29 10:18:12;;;;;;;;;;;22.70;90.70;;;;;;5088142;28;19909;-59
2021/07/29 10:20:40;;;;;;;;;;;22.80;90.80;;;;;;5087886;28;19915;-59
2021/07/29 10:23:15;;;;;;;;;;;22.80;91.10;;;;;;5086927;28;19908;-60
2021/07/29 10:25:53;;;;;;;;;;;22.80;91.90;;;;;;5091751;28;19909;-59
2021/07/29 10:28:22;;;;;;;;;;;22.90;90.60;;;;;;5084040;28;20332;-59
2021/07/29 10:30:58;;;;;;;;;;;23.10;91.50;;;;;;5091669;28;19916;-56
2021/07/29 10:33:24;;;;;;;;;;;23.00;91.40;;;;;;5066174;28;20037;-59
2021/07/29 10:35:50;;;;;;;;;;;22.90;91.30;;;;;;5091615;28;19908;-56
2021/07/29 10:38:38;;;;;;;;;;;22.60;90.20;;;;;;5090354;28;19915;-59
2021/07/29 10:41:10;;;;;;;;;;;22.50;90.20;;;;;;5083171;28;19955;-58
2021/07/29 10:43:35;;;;;;;;;;;22.20;90.60;;;;;;5073137;28;19917;-58
2021/07/29 10:46:01;;;;;;;;;;;21.90;90.80;;;;;;5075489;28;19920;-58
2021/07/29 10:48:39;;;;;;;;;;;21.80;90.60;;;;;;5086004;28;20339;-62
2021/07/29 10:51:15;;;;;;;;;;;21.60;91.30;;;;;;5076014;28;19909;-55
2021/07/29 10:53:42;;;;;;;;;;;21.60;91.00;;;;;;5091277;28;20018;-56
2021/07/29 10:56:12;;;;;;;;;;;21.60;91.80;;;;;;5072642;28;19912;-58
2021/07/29 10:58:44;;;;;;;;;;;21.80;92.30;;;;;;5090654;28;19908;-57
2021/07/29 11:01:10;;;;;;;;;;;21.90;90.90;;;;;;5091277;28;19908;-58
2021/07/29 11:03:46;;;;;;;;;;;21.90;91.30;;;;;;5091175;28;19923;-60
2021/07/29 11:06:43;;;;;;;;;;;22.00;91.80;;;;;;5090344;28;20438;-59
2021/07/29 11:09:09;;;;;;;;;;;22.20;92.50;;;;;;5090484;28;20026;-61
2021/07/29 11:11:38;;;;;;;;;;;22.20;92.20;;;;;;5090900;28;19949;-58
2021/07/29 11:14:03;;;;;;;;;;;22.20;90.60;;;;;;5090575;28;19918;-54
2021/07/29 11:16:29;;;;;;;;;;;22.00;90.30;;;;;;5090519;28;19912;-60
2021/07/29 11:18:59;;;;;;;;;;;21.80;90.80;;;;;;5072350;28;20002;-54
2021/07/29 11:21:24;;;;;;;;;;;21.90;91.70;;;;;;5083653;28;19908;-57
2021/07/29 11:23:50;;;;;;;;;;;22.00;93.20;;;;;;5090371;28;19909;-59
2021/07/29 11:26:15;;;;;;;;;;;22.20;92.20;;;;;;5090214;28;19908;-59
2021/07/29 11:28:41;;;;;;;;;;;22.30;92.00;;;;;;5090445;28;20433;-57
2021/07/29 11:31:07;;;;;;;;;;;22.50;91.60;;;;;;5090142;28;19920;-58
2021/07/29 11:33:32;;;;;;;;;;;22.70;91.70;;;;;;5090253;28;19912;-60
2021/07/29 11:36:07;;;;;;;;;;;22.90;90.40;;;;;;5089802;28;19908;-59
2021/07/29 11:38:33;;;;;;;;;;;23.00;90.80;;;;;;5090634;28;19915;-58
2021/07/29 11:41:02;;;;;;;;;;;23.00;90.60;;;;;;5090385;28;19909;-55
2021/07/29 11:43:32;;;;;;;;;;;23.10;90.60;;;;;;5071981;28;19994;-59
2021/07/29 11:46:08;;;;;;;;;;;23.10;90.20;;;;;;5071565;28;19916;-59
2021/07/29 11:48:34;;;;;;;;;;;23.10;91.30;;;;;;5090091;28;20007;-57
2021/07/29 11:51:00;;;;;;;;;;;23.10;91.50;;;;;;5080750;28;20011;-54
2021/07/29 11:53:39;;;;;;;;;;;23.10;90.10;;;;;;5071798;28;19908;-59
2021/07/29 11:56:05;;;;;;;;;;;23.00;90.00;;;;;;5088029;28;19908;-60
2021/07/29 11:58:31;;;;;;;;;;;23.00;90.90;;;;;;5089821;28;19969;-53
2021/07/29 12:00:56;;;;;;;;;;;23.10;90.80;;;;;;5091578;28;19912;-53
2021/07/29 12:03:30;;;;;;;;;;;23.20;89.10;;;;;;5089616;28;19912;-55
2021/07/29 12:05:56;;;;;;;;;;;23.10;90.40;;;;;;5089171;28;19908;-56
2021/07/29 12:08:22;;;;;;;;;;;23.00;90.60;;;;;;5089774;28;19919;-56
2021/07/29 12:10:51;;;;;;;;;;;23.10;90.20;;;;;;5089690;28;19916;-58
2021/07/29 12:13:18;;;;;;;;;;;22.90;90.40;;;;;;5089578;28;19909;-55
2021/07/29 12:15:47;;;;;;;;;;;22.90;88.70;;;;;;5089379;28;19912;-51
2021/07/29 12:18:16;;;;;;;;;;;22.80;89.90;;;;;;5089477;28;19916;-56
2021/07/29 12:20:42;;;;;;;;;;;22.90;89.20;;;;;;5077744;28;19913;-56
2021/07/29 12:23:12;;;;;;;;;;;22.90;86.40;;;;;;5079534;28;19983;-57
2021/07/29 12:25:37;;;;;;;;;;;22.90;85.20;;;;;;5087339;28;20370;-57
2021/07/29 12:28:03;;;;;;;;;;;22.90;84.50;;;;;;5075987;28;19912;-55
2021/07/29 12:30:29;;;;;;;;;;;23.10;86.30;;;;;;5083787;28;20046;-57
2021/07/29 12:33:14;;;;;;;;;;;23.20;86.90;;;;;;5080314;28;19930;-57
2021/07/29 12:35:41;;;;;;;;;;;23.10;87.70;;;;;;5084241;28;20008;-54
2021/07/29 12:38:06;;;;;;;;;;;23.00;85.60;;;;;;5089041;28;20497;-56
2021/07/29 12:40:32;;;;;;;;;;;22.80;83.60;;;;;;5089088;28;19974;-56
2021/07/29 12:43:16;;;;;;;;;;;22.70;86.90;;;;;;5089161;28;19915;-59
2021/07/29 12:45:53;;;;;;;;;;;22.50;89.50;;;;;;5084365;28;19908;-58
2021/07/29 12:48:19;;;;;;;;;;;22.50;88.80;;;;;;5082647;28;19915;-56
2021/07/29 12:50:44;;;;;;;;;;;22.50;90.40;;;;;;5089386;28;19908;-58
2021/07/29 12:53:10;;;;;;;;;;;22.30;88.20;;;;;;5088347;28;20361;-56
2021/07/29 12:55:37;;;;;;;;;;;22.10;90.10;;;;;;5087599;28;19977;-60
2021/07/29 12:58:04;;;;;;;;;;;22.10;90.50;;;;;;5089056;28;19919;-58
2021/07/29 13:00:29;;;;;;;;;;;22.00;86.30;;;;;;5088817;28;19916;-58
2021/07/29 13:02:55;;;;;;;;;;;22.00;89.60;;;;;;5088711;28;19908;-58
2021/07/29 13:05:20;;;;;;;;;;;22.00;86.70;;;;;;5088059;28;20392;-60
2021/07/29 13:07:48;;;;;;;;;;;21.90;87.50;;;;;;5088842;28;19969;-58
2021/07/29 13:10:13;;;;;;;;;;;21.80;88.00;;;;;;5088570;28;20027;-57
2021/07/29 13:12:39;;;;;;;;;;;21.60;90.40;;;;;;5088571;28;19921;-54
2021/07/29 13:15:05;;;;;;;;;;;21.20;90.30;;;;;;5088370;28;19912;-54
2021/07/29 13:17:31;;;;;;;;;;;20.50;91.10;;;;;;5088705;28;20282;-57
2021/07/29 13:20:02;;;;;;;;;;;20.00;92.60;;;;;;5088348;28;19951;-56
2021/07/29 13:22:27;;;;;;;;;;;19.70;95.90;;;;;;5088359;28;20366;-59
2021/07/29 13:24:54;;;;;;;;;;;19.60;96.10;;;;;;5088195;28;19953;-56
2021/07/29 13:27:20;;;;;;;;;;;19.50;96.30;;;;;;5088526;28;20499;-59
2021/07/29 13:29:45;;;;;;;;;;;19.60;97.50;;;;;;5088115;28;19920;-58
2021/07/29 13:32:12;;;;;;;;;;;19.90;97.20;;;;;;5088237;28;19920;-56
2021/07/29 13:34:37;;;;;;;;;;;20.10;96.80;;;;;;5087675;28;19920;-56
2021/07/29 13:37:03;;;;;;;;;;;20.20;95.00;;;;;;5088332;28;20038;-57
2021/07/29 13:39:28;;;;;;;;;;;20.40;96.00;;;;;;5088324;28;19909;-57
2021/07/29 13:41:54;;;;;;;;;;;20.70;94.30;;;;;;5088249;28;20111;-58
2021/07/29 13:44:21;;;;;;;;;;;20.80;96.20;;;;;;5088259;28;19977;-57
2021/07/29 13:46:47;;;;;;;;;;;20.80;94.70;;;;;;5088353;28;19966;-54
2021/07/29 13:49:12;;;;;;;;;;;20.90;94.00;;;;;;5088313;28;20028;-56
2021/07/29 13:51:38;;;;;;;;;;;21.00;94.30;;;;;;5091998;28;19999;-60
2021/07/29 13:54:03;;;;;;;;;;;21.20;94.40;;;;;;5087828;28;19920;-57
2021/07/29 13:56:29;;;;;;;;;;;21.40;94.50;;;;;;5069916;28;19943;-54
2021/07/29 13:58:54;;;;;;;;;;;21.50;93.80;;;;;;5089333;28;19908;-57
2021/07/29 14:01:22;;;;;;;;;;;21.50;93.10;;;;;;5092442;28;19923;-59
2021/07/29 14:03:47;;;;;;;;;;;21.20;92.50;;;;;;5091991;28;20286;-57
2021/07/29 14:06:13;;;;;;;;;;;21.10;94.10;;;;;;5091778;28;19915;-59
2021/07/29 14:08:38;;;;;;;;;;;21.00;94.10;;;;;;5092276;28;19908;-53
2021/07/29 14:11:04;;;;;;;;;;;20.80;98.10;;;;;;5091979;28;19931;-57
2021/07/29 14:13:30;;;;;;;;;;;20.40;99.20;;;;;;5073886;28;19908;-52
2021/07/29 14:15:56;;;;;;;;;;;20.10;99.20;;;;;;5091871;28;19995;-58